Time;durP1;ratioP1;P1;durP2;ratioP2;P2;SDS_P1;SDS_P2;PMS_P1;PMS_P2;Temp;Humidity;BMP_temperature;BMP_pressure;BME280_temperature;BME280_humidity;BME280_pressure;Samples;Min_cycle;Max_cycle;Signal;HPM_P1;HPM_P2
2023/08/09 07:41:06;;;;;;;0.73;0.73;;;;;;;18.10;100.00;100038.09;1438895;27;20520;-92
2023/08/09 07:43:31;;;;;;;0.28;0.28;;;;;;;17.99;100.00;100009.91;4793061;29;20321;-93
2023/08/09 07:45:57;;;;;;;0.98;0.90;;;;;;;18.08;100.00;100018.16;4823635;29;20493;-93
2023/08/09 08:31:37;;;;;;;0.20;0.20;;;;;;;20.61;100.00;100001.84;1014591;27;20437;-94
2023/08/09 08:34:06;;;;;;;0.20;0.20;;;;;;;20.91;100.00;99988.84;4840897;29;20058;-93
2023/08/09 08:36:34;;;;;;;0.43;0.43;;;;;;;21.20;100.00;100005.34;4801006;29;20049;-93
2023/08/09 08:39:05;;;;;;;1.08;0.60;;;;;;;21.13;100.00;100010.72;4838155;29;20053;-94
2023/08/09 08:41:34;;;;;;;0.22;0.22;;;;;;;21.25;100.00;100041.25;4843032;29;20050;-93
2023/08/09 08:44:05;;;;;;;0.68;0.60;;;;;;;21.25;100.00;100029.97;4824760;29;20061;-92
2023/08/09 09:18:49;;;;;;;0.32;0.32;;;;;;;21.28;100.00;100017.66;1385362;27;20054;-93
2023/08/09 09:21:16;;;;;;;0.65;0.65;;;;;;;21.25;100.00;100029.19;4779216;29;20589;-93
2023/08/09 09:23:42;;;;;;;0.43;0.25;;;;;;;21.32;100.00;100035.09;4776356;29;20049;-93
2023/08/09 09:28:53;;;;;;;0.30;0.30;;;;;;;21.46;100.00;100021.25;541814;27;20467;-93
2023/08/09 09:31:21;;;;;;;0.65;0.55;;;;;;;21.68;100.00;100001.50;4815226;29;20058;-94
2023/08/09 09:33:54;;;;;;;0.45;0.45;;;;;;;22.02;99.90;100014.31;4815706;29;20054;-94
2023/08/09 09:36:20;;;;;;;0.57;0.52;;;;;;;22.27;96.67;100032.22;4817829;29;20129;-95
2023/08/09 09:38:51;;;;;;;0.43;0.40;;;;;;;22.27;94.21;100013.22;4818627;29;20126;-94
2023/08/09 09:41:17;;;;;;;0.40;0.35;;;;;;;22.23;93.64;100015.56;4819571;29;20057;-93
2023/08/09 09:43:43;;;;;;;0.47;0.47;;;;;;;22.10;91.70;100012.50;4817133;29;20042;-94
2023/08/09 09:46:24;;;;;;;0.50;0.50;;;;;;;22.31;91.39;100027.84;4819784;29;20121;-94
2023/08/09 09:49:05;;;;;;;0.32;0.32;;;;;;;22.42;91.09;100015.75;4814607;29;20058;-93
2023/08/09 09:51:34;;;;;;;0.75;0.55;;;;;;;22.62;92.38;100023.09;4829368;29;20490;-92
2023/08/09 09:56:42;;;;;;;1.33;1.23;;;;;;;22.12;87.69;100004.25;1433458;27;20061;-93
2023/08/09 09:59:12;;;;;;;0.32;0.25;;;;;;;22.25;83.54;100004.50;4811358;29;20051;-94
2023/08/09 10:01:42;;;;;;;0.80;0.75;;;;;;;22.59;84.29;100032.63;4793406;29;20524;-94
2023/08/09 10:04:11;;;;;;;0.17;0.17;;;;;;;22.49;80.07;100003.13;4793133;29;20088;-93
2023/08/09 10:06:42;;;;;;;0.38;0.38;;;;;;;22.90;80.04;100012.44;4785522;29;20070;-95
2023/08/09 10:09:09;;;;;;;0.32;0.32;;;;;;;22.99;77.72;99978.22;4800975;29;20054;-93
2023/08/09 10:11:36;;;;;;;1.10;0.52;;;;;;;23.07;76.39;99998.97;4788207;29;20134;-93
2023/08/09 10:14:03;;;;;;;1.45;0.80;;;;;;;23.34;75.36;100021.94;4809903;29;20357;-94
2023/08/09 10:16:43;;;;;;;0.17;0.17;;;;;;;23.25;77.61;100012.47;4796415;29;20110;-94
2023/08/09 10:19:12;;;;;;;0.17;0.17;;;;;;;23.61;76.98;99998.34;4796206;29;20050;-93
2023/08/09 10:43:08;;;;;;;1.50;1.13;;;;;;;23.70;67.45;100000.81;1440515;27;20061;-94
2023/08/09 10:45:34;;;;;;;0.47;0.47;;;;;;;23.78;67.37;100001.03;4818796;29;20128;-92
2023/08/09 10:48:28;;;;;;;0.57;0.57;;;;;;;23.98;66.74;100023.97;4810073;29;20050;-93
2023/08/09 10:51:00;;;;;;;;;;;;;;;24.14;61.69;100031.56;4840754;29;20137;-93
2023/08/09 10:53:27;;;;;;;0.20;0.20;;;;;;;24.00;61.04;100024.22;4838670;29;20469;-92
2023/08/09 10:55:57;;;;;;;0.75;0.63;;;;;;;24.08;64.83;100013.84;4822344;29;20041;-92
2023/08/09 10:58:29;;;;;;;0.25;0.25;;;;;;;23.94;62.32;100019.94;4821617;29;20073;-93
2023/08/09 11:00:55;;;;;;;0.73;0.73;;;;;;;23.73;64.79;100010.34;4808972;29;20046;-93
2023/08/09 11:03:23;;;;;;;0.63;0.63;;;;;;;23.67;65.11;100019.66;4822226;29;20053;-93
2023/08/09 11:05:49;;;;;;;1.17;0.80;;;;;;;23.99;66.65;100044.59;4834045;29;20037;-92
2023/08/09 11:08:18;;;;;;;0.65;0.65;;;;;;;23.83;65.69;100020.78;4858415;29;20094;-93
2023/08/09 11:10:45;;;;;;;0.45;0.45;;;;;;;23.82;64.15;100002.25;4838003;29;20049;-94
2023/08/09 11:13:13;;;;;;;0.65;0.32;;;;;;;24.03;64.26;100020.34;4838348;29;20575;-92
2023/08/09 11:20:58;;;;;;;0.10;0.10;;;;;;;24.30;62.10;100034.78;4836010;29;20497;-93
2023/08/09 11:23:24;;;;;;;0.20;0.20;;;;;;;24.46;63.39;100030.97;4810263;29;20046;-95
2023/08/09 11:25:50;;;;;;;0.70;0.70;;;;;;;24.41;59.84;100023.31;4809737;29;20400;-94
2023/08/09 11:28:15;;;;;;;1.58;1.42;;;;;;;24.15;58.94;100029.50;4810509;29;20057;-94
2023/08/09 11:30:42;;;;;;;0.47;0.20;;;;;;;23.72;61.47;100029.41;4793530;29;20160;-96
2023/08/09 11:33:09;;;;;;;1.08;0.80;;;;;;;23.47;63.22;100020.06;4819100;29;20578;-93
2023/08/09 11:35:43;;;;;;;0.47;0.47;;;;;;;23.27;66.51;100028.94;4813539;29;20046;-93
2023/08/09 11:38:10;;;;;;;0.30;0.30;;;;;;;23.08;69.02;100028.81;4804908;29;20057;-92
2023/08/09 11:40:41;;;;;;;0.17;0.17;;;;;;;23.03;69.68;100028.84;4821232;29;20049;-96
2023/08/09 11:43:10;;;;;;;0.38;0.38;;;;;;;23.11;70.01;100013.63;4817964;29;20546;-93
2023/08/09 11:45:48;;;;;;;0.52;0.50;;;;;;;23.07;71.10;100018.78;4815143;29;20136;-93
2023/08/09 11:48:26;;;;;;;0.40;0.40;;;;;;;23.23;72.14;100020.75;4812502;29;20407;-92
2023/08/09 11:51:06;;;;;;;0.45;0.20;;;;;;;23.29;72.07;100017.09;4813746;29;20046;-92
2023/08/09 11:53:33;;;;;;;2.45;0.43;;;;;;;23.16;71.30;100007.16;4820098;29;20050;-94
2023/08/09 11:56:00;;;;;;;0.60;0.60;;;;;;;23.11;69.83;100010.03;4826230;29;20514;-94
2023/08/09 11:58:26;;;;;;;0.40;0.40;;;;;;;22.87;72.06;100005.03;4791565;29;20053;-93
2023/08/09 12:00:52;;;;;;;0.35;0.30;;;;;;;22.88;74.91;100008.63;4799683;29;20465;-93
2023/08/09 12:03:21;;;;;;;0.45;0.30;;;;;;;22.74;76.17;100002.00;4791765;29;20065;-93
2023/08/09 12:05:51;;;;;;;0.45;0.45;;;;;;;22.85;76.77;100007.59;4805717;29;20041;-95
2023/08/09 12:08:17;;;;;;;0.20;0.20;;;;;;;22.81;76.85;99984.47;4809606;29;20050;-93
2023/08/09 12:10:43;;;;;;;0.35;0.28;;;;;;;22.84;74.99;99999.66;4815022;29;20025;-92
2023/08/09 12:13:09;;;;;;;0.82;0.75;;;;;;;22.88;77.72;99989.59;4808917;29;20276;-93
2023/08/09 12:15:35;;;;;;;0.40;0.40;;;;;;;23.04;76.73;99988.72;4793506;29;20042;-92
2023/08/09 12:18:01;;;;;;;0.30;0.28;;;;;;;23.09;73.89;99992.81;4808205;29;20696;-93
2023/08/09 12:20:27;;;;;;;0.45;0.43;;;;;;;23.12;71.68;99992.53;4819435;29;20054;-92
2023/08/09 12:22:53;;;;;;;0.55;0.40;;;;;;;23.12;72.47;99992.53;4843710;29;20038;-94
2023/08/09 12:25:19;;;;;;;0.38;0.32;;;;;;;23.27;71.04;99985.72;4841948;29;20502;-94
2023/08/09 12:27:44;;;;;;;0.30;0.30;;;;;;;23.18;68.33;99976.25;4830379;29;20080;-91
2023/08/09 12:30:10;;;;;;;0.63;0.63;;;;;;;22.90;70.51;99967.19;4838712;29;20094;-94
2023/08/09 12:32:37;;;;;;;0.63;0.63;;;;;;;23.03;69.00;99990.00;4839622;29;20106;-94
2023/08/09 12:35:06;;;;;;;0.40;0.40;;;;;;;23.25;70.30;99978.53;4838094;29;20141;-93
2023/08/09 12:37:32;;;;;;;1.27;0.73;;;;;;;23.55;68.28;99992.72;4839288;29;20125;-92
2023/08/09 12:39:58;;;;;;;3.20;0.40;;;;;;;23.85;67.70;99983.44;4841332;29;20140;-93
2023/08/09 12:42:23;;;;;;;0.47;0.47;;;;;;;24.10;63.59;99982.16;4826419;29;20133;-94
2023/08/09 12:44:49;;;;;;;0.30;0.30;;;;;;;23.97;65.05;99962.97;4841515;29;20504;-93
2023/08/09 12:47:14;;;;;;;2.20;0.60;;;;;;;24.18;66.55;99968.19;4826690;29;20041;-93
2023/08/09 12:49:40;;;;;;;0.32;0.32;;;;;;;24.33;61.34;99974.19;4841206;29;20037;-93
2023/08/09 12:52:06;;;;;;;0.20;0.20;;;;;;;24.32;58.75;99970.56;4823566;29;20515;-93
2023/08/09 12:54:32;;;;;;;0.98;0.70;;;;;;;24.31;59.62;99956.94;4826459;29;20073;-94
2023/08/09 12:56:57;;;;;;;1.05;0.43;;;;;;;24.32;61.63;99952.78;4841759;29;20084;-92
2023/08/09 12:59:23;;;;;;;0.50;0.50;;;;;;;24.18;58.55;99954.00;4841626;29;20071;-92
2023/08/09 13:01:49;;;;;;;0.30;0.30;;;;;;;24.15;61.00;99956.59;4841807;29;20054;-93
2023/08/09 13:04:18;;;;;;;0.47;0.35;;;;;;;24.12;62.87;99940.63;4826086;29;20045;-93
2023/08/09 13:06:44;;;;;;;0.93;0.75;;;;;;;24.04;63.80;99951.03;4842594;29;20148;-93
2023/08/09 13:09:11;;;;;;;0.45;0.45;;;;;;;24.07;64.47;99949.97;4857695;29;20141;-93
2023/08/09 13:11:37;;;;;;;0.30;0.30;;;;;;;24.09;63.19;99936.03;4827616;29;20505;-94
2023/08/09 13:14:02;;;;;;;0.63;0.55;;;;;;;24.26;62.99;99926.59;4823697;29;20128;-96
2023/08/09 13:16:29;;;;;;;0.32;0.32;;;;;;;24.88;56.62;99933.75;4830264;29;20490;-94
2023/08/09 13:18:55;;;;;;;0.40;0.35;;;;;;;25.23;52.02;99937.59;4838770;29;20087;-95
2023/08/09 13:21:20;;;;;;;0.30;0.30;;;;;;;25.30;53.17;99928.44;4824165;29;20070;-94
2023/08/09 13:23:46;;;;;;;0.60;0.60;;;;;;;25.45;51.72;99931.53;4841898;29;20050;-94
2023/08/09 13:26:12;;;;;;;0.90;0.90;;;;;;;25.38;52.13;99932.16;4828870;29;20050;-95
2023/08/09 13:28:37;;;;;;;0.30;0.30;;;;;;;25.59;50.02;99923.84;4826638;29;20562;-95
2023/08/09 13:31:04;;;;;;;0.60;0.50;;;;;;;25.68;49.65;99920.56;4840764;29;20085;-96
2023/08/09 13:33:30;;;;;;;0.98;0.52;;;;;;;25.44;49.88;99924.31;4838741;29;20054;-94
2023/08/09 13:35:56;;;;;;;0.30;0.30;;;;;;;25.33;50.63;99925.28;4844797;29;20045;-95
2023/08/09 13:38:26;;;;;;;0.80;0.55;;;;;;;25.14;50.78;99935.16;4824017;29;20519;-94
2023/08/09 13:40:54;;;;;;;0.60;0.52;;;;;;;25.11;50.59;99930.56;4835283;29;20138;-95
2023/08/09 13:43:20;;;;;;;0.30;0.30;;;;;;;24.89;51.05;99923.94;4827092;29;20041;-95
2023/08/09 13:45:45;;;;;;;0.28;0.28;;;;;;;24.95;51.28;99930.28;4824345;29;20037;-93
2023/08/09 13:48:11;;;;;;;0.22;0.22;;;;;;;24.55;51.05;99922.84;4857014;29;20049;-94
2023/08/09 13:50:36;;;;;;;0.38;0.38;;;;;;;24.13;52.66;99941.41;4855951;29;20034;-94
2023/08/09 13:53:03;;;;;;;0.28;0.28;;;;;;;24.07;54.94;99927.28;4841733;29;20514;-96
2023/08/09 13:55:28;;;;;;;0.35;0.35;;;;;;;23.80;53.76;99924.78;4850736;29;20050;-94
2023/08/09 13:57:54;;;;;;;0.40;0.32;;;;;;;23.60;57.52;99943.00;4841508;29;20049;-95
2023/08/09 14:00:20;;;;;;;0.32;0.32;;;;;;;23.52;54.54;99953.38;4826134;29;20069;-94
2023/08/09 14:02:45;;;;;;;0.43;0.38;;;;;;;23.37;55.20;99947.31;4841501;29;20049;-95
2023/08/09 14:05:11;;;;;;;0.30;0.30;;;;;;;23.36;56.36;99940.13;4855934;29;20044;-95
2023/08/09 14:07:37;;;;;;;0.28;0.28;;;;;;;23.36;54.08;99959.94;4856845;29;20223;-94
2023/08/09 14:10:03;;;;;;;0.28;0.28;;;;;;;23.29;56.45;99952.78;4858261;29;21106;-95
2023/08/09 14:12:28;;;;;;;0.45;0.45;;;;;;;23.23;58.02;99952.06;4822096;29;20404;-96
2023/08/09 14:14:54;;;;;;;0.20;0.20;;;;;;;23.29;59.76;99958.44;4837755;29;20198;-95
2023/08/09 14:17:20;;;;;;;0.32;0.32;;;;;;;23.19;59.15;99954.41;4856512;29;20041;-95
2023/08/09 14:19:45;;;;;;;0.43;0.38;;;;;;;23.19;61.96;99968.53;4825499;29;20053;-93
2023/08/09 14:22:11;;;;;;;0.28;0.28;;;;;;;23.18;63.71;99969.84;4841226;29;20053;-94
2023/08/09 14:24:37;;;;;;;0.73;0.70;;;;;;;23.11;63.28;99984.56;4825551;29;20049;-94
2023/08/09 14:27:03;;;;;;;0.40;0.30;;;;;;;23.11;64.67;99978.91;4840847;29;20053;-94
2023/08/09 14:29:29;;;;;;;0.30;0.30;;;;;;;23.04;64.28;99983.06;4840745;29;20120;-95
2023/08/09 14:31:55;;;;;;;0.28;0.28;;;;;;;23.00;64.48;99988.22;4841109;29;20041;-95
2023/08/09 14:34:23;;;;;;;1.17;0.82;;;;;;;22.93;68.25;99991.59;4827986;29;20049;-96
2023/08/09 14:36:49;;;;;;;0.40;0.40;;;;;;;22.84;68.03;99994.75;4841183;29;20489;-94
2023/08/09 14:39:15;;;;;;;0.95;0.40;;;;;;;22.70;67.73;99995.84;4828564;29;20201;-95
2023/08/09 14:41:41;;;;;;;1.70;0.68;;;;;;;22.66;69.05;100003.81;4855547;29;20136;-95
2023/08/09 14:44:07;;;;;;;0.35;0.35;;;;;;;22.58;70.32;100011.31;4846662;29;20155;-93
2023/08/09 14:46:35;;;;;;;1.77;1.00;;;;;;;22.12;79.07;100031.78;4846847;29;20045;-93
2023/08/09 14:49:01;;;;;;;0.50;0.43;;;;;;;20.96;100.00;100038.84;4843126;29;20046;-93
2023/08/09 14:51:27;;;;;;;0.40;0.40;;;;;;;20.28;100.00;100050.31;4839927;29;20121;-92
2023/08/09 14:53:53;;;;;;;0.80;0.80;;;;;;;20.00;100.00;100041.69;4822035;29;20107;-91
2023/08/09 14:56:22;;;;;;;0.30;0.30;;;;;;;19.47;100.00;100054.34;4854704;29;20070;-92
2023/08/09 14:58:53;;;;;;;0.90;0.30;;;;;;;19.21;100.00;100069.66;4834160;29;20046;-92
2023/08/09 15:01:25;;;;;;;0.30;0.30;;;;;;;18.77;100.00;100067.09;4859027;29;20061;-93
2023/08/09 15:03:51;;;;;;;0.17;0.17;;;;;;;18.40;100.00;100078.84;4833247;29;20045;-92
2023/08/09 15:06:17;;;;;;;0.35;0.35;;;;;;;18.08;100.00;100083.50;4846093;29;20048;-93
2023/08/09 15:08:47;;;;;;;0.32;0.28;;;;;;;17.94;100.00;100097.56;4861690;29;20156;-91
2023/08/09 15:11:13;;;;;;;0.22;0.22;;;;;;;17.69;100.00;100104.56;4863331;29;20054;-92
2023/08/09 15:13:39;;;;;;;0.20;0.20;;;;;;;17.47;100.00;100104.16;4846089;29;20046;-92
2023/08/09 15:16:06;;;;;;;0.40;0.30;;;;;;;17.34;100.00;100112.84;4842673;29;20444;-92
2023/08/09 15:18:31;;;;;;;0.70;0.70;;;;;;;17.14;100.00;100109.91;4859231;29;20049;-95
2023/08/09 15:20:57;;;;;;;0.20;0.20;;;;;;;16.96;100.00;100090.44;4846169;29;20495;-94
2023/08/09 15:23:23;;;;;;;0.15;0.15;;;;;;;17.09;100.00;100102.16;4846758;29;20054;-94
2023/08/09 15:25:49;;;;;;;0.30;0.30;;;;;;;16.96;100.00;100082.81;4845930;29;20056;-95
2023/08/09 15:28:15;;;;;;;0.40;0.40;;;;;;;17.29;100.00;100098.72;4862606;29;20055;-96
2023/08/09 15:30:41;;;;;;;0.20;0.20;;;;;;;17.44;100.00;100114.28;4847609;29;20042;-95
2023/08/09 15:33:06;;;;;;;0.60;0.60;;;;;;;17.38;100.00;100090.22;4832373;29;20116;-96
2023/08/09 15:35:32;;;;;;;0.20;0.20;;;;;;;17.40;100.00;100082.09;4836913;29;20137;-94
2023/08/09 15:37:58;;;;;;;0.80;0.70;;;;;;;17.42;100.00;100091.56;4840560;29;20213;-94
2023/08/09 15:40:24;;;;;;;0.57;0.57;;;;;;;17.48;100.00;100089.63;4858498;29;20516;-93
2023/08/09 15:42:49;;;;;;;0.52;0.40;;;;;;;17.48;100.00;100092.44;4862721;29;20057;-95
2023/08/09 15:45:15;;;;;;;0.80;0.80;;;;;;;17.55;100.00;100094.84;4861936;29;20181;-94
2023/08/09 15:47:41;;;;;;;0.38;0.38;;;;;;;17.69;100.00;100110.94;4846945;29;20434;-93
2023/08/09 15:50:07;;;;;;;0.20;0.20;;;;;;;17.61;100.00;100098.56;4858402;29;20515;-92
2023/08/09 15:52:33;;;;;;;0.40;0.40;;;;;;;17.70;100.00;100109.69;4844987;29;20415;-94
2023/08/09 15:54:59;;;;;;;1.60;0.77;;;;;;;17.56;100.00;100073.97;4858443;29;20146;-94
2023/08/09 15:57:25;;;;;;;0.40;0.40;;;;;;;17.63;100.00;100090.44;4858988;29;20038;-94
2023/08/09 15:59:51;;;;;;;0.70;0.60;;;;;;;17.59;100.00;100087.03;4840105;29;20048;-95
2023/08/09 16:02:16;;;;;;;1.98;1.38;;;;;;;17.69;100.00;100088.50;4871870;29;20046;-94
2023/08/09 16:04:42;;;;;;;0.55;0.55;;;;;;;17.74;100.00;100067.41;4843322;29;20045;-94
2023/08/09 16:07:10;;;;;;;1.27;1.17;;;;;;;17.71;100.00;100063.53;4859285;29;20061;-95
2023/08/09 16:09:39;;;;;;;0.77;0.77;;;;;;;17.82;100.00;100067.78;4843353;29;20137;-94
2023/08/09 16:12:11;;;;;;;0.52;0.47;;;;;;;17.81;100.00;100072.63;4856796;29;20050;-94
2023/08/09 16:14:40;;;;;;;2.05;1.45;;;;;;;17.84;100.00;100062.44;4866436;29;20150;-94
2023/08/09 16:17:06;;;;;;;1.00;0.98;;;;;;;17.82;100.00;100062.94;4859043;29;20041;-94
2023/08/09 16:19:32;;;;;;;1.25;0.73;;;;;;;17.92;100.00;100072.78;4847594;29;20049;-95
2023/08/09 16:21:58;;;;;;;0.93;0.88;;;;;;;17.84;100.00;100062.44;4857221;29;20071;-95
2023/08/09 16:24:25;;;;;;;1.48;0.77;;;;;;;17.83;100.00;100046.91;4848029;29;20054;-93
2023/08/09 16:26:50;;;;;;;0.30;0.30;;;;;;;17.73;100.00;100053.84;4825483;29;20384;-94
2023/08/09 16:29:17;;;;;;;0.47;0.47;;;;;;;17.73;100.00;100042.63;4864232;29;20049;-94
2023/08/09 16:31:42;;;;;;;0.82;0.57;;;;;;;17.81;100.00;100046.59;4858016;29;20508;-95
2023/08/09 16:34:08;;;;;;;2.78;1.13;;;;;;;17.79;100.00;100038.69;4843249;29;20049;-93
2023/08/09 16:36:34;;;;;;;1.48;0.60;;;;;;;17.84;100.00;100043.59;4825960;29;20049;-95
2023/08/09 16:39:00;;;;;;;0.68;0.45;;;;;;;17.88;100.00;100040.56;4824785;29;20077;-95
2023/08/09 16:41:26;;;;;;;2.47;1.63;;;;;;;17.70;100.00;100022.72;4834655;29;20132;-95
2023/08/09 16:43:54;;;;;;;0.32;0.32;;;;;;;17.47;100.00;100017.97;4860532;29;20094;-94
2023/08/09 16:46:20;;;;;;;1.85;1.13;;;;;;;17.47;100.00;100025.63;4829427;29;20056;-95
2023/08/09 16:48:49;;;;;;;1.00;0.82;;;;;;;17.28;100.00;100025.03;4839814;29;20410;-96
2023/08/09 16:51:15;;;;;;;2.60;1.33;;;;;;;17.27;100.00;100028.34;4850299;29;20086;-95
2023/08/09 16:53:41;;;;;;;0.40;0.40;;;;;;;17.20;100.00;100018.28;4847872;29;20046;-96
2023/08/09 16:56:07;;;;;;;0.43;0.43;;;;;;;17.06;100.00;100008.63;4851740;29;20121;-95
2023/08/09 16:58:33;;;;;;;0.80;0.80;;;;;;;16.82;100.00;99993.13;4854192;29;20144;-95
2023/08/09 17:00:59;;;;;;;1.30;1.20;;;;;;;16.84;100.00;99993.41;4832915;29;20054;-96
2023/08/09 17:03:26;;;;;;;1.95;1.35;;;;;;;16.89;100.00;99993.53;4850855;29;20049;-96
2023/08/09 17:05:52;;;;;;;0.93;0.55;;;;;;;16.98;100.00;100007.44;4858707;29;20060;-96
2023/08/09 17:08:19;;;;;;;1.27;1.17;;;;;;;16.94;100.00;100004.06;4854293;29;20037;-96
2023/08/09 17:10:45;;;;;;;0.30;0.30;;;;;;;17.23;100.00;100034.13;4829108;29;20068;-95
2023/08/09 17:13:11;;;;;;;0.55;0.50;;;;;;;17.32;100.00;100034.03;4830948;29;20041;-93
2023/08/09 17:15:38;;;;;;;0.82;0.45;;;;;;;17.43;100.00;100031.41;4874393;29;20041;-93
2023/08/09 17:18:05;;;;;;;0.82;0.82;;;;;;;17.42;100.00;100018.66;4858262;29;20054;-94
2023/08/09 17:20:31;;;;;;;0.25;0.25;;;;;;;17.49;100.00;100028.72;4866616;29;20129;-94
2023/08/09 17:22:57;;;;;;;0.70;0.70;;;;;;;17.60;100.00;100026.88;4835729;29;20057;-95
2023/08/09 17:25:23;;;;;;;0.40;0.40;;;;;;;17.64;100.00;100030.28;4854458;29;20527;-96
2023/08/09 17:27:50;;;;;;;0.63;0.50;;;;;;;17.58;100.00;100014.63;4810648;29;20046;-94
2023/08/09 17:30:17;;;;;;;0.45;0.45;;;;;;;17.73;100.00;100025.81;4835987;29;20085;-94
2023/08/09 17:32:43;;;;;;;0.60;0.60;;;;;;;17.61;100.00;99999.63;4858245;29;20042;-96
2023/08/09 17:35:11;;;;;;;1.10;0.77;;;;;;;17.54;100.00;99986.75;4828198;29;20063;-96
2023/08/09 17:37:37;;;;;;;0.28;0.28;;;;;;;17.54;100.00;99983.94;4862729;29;20053;-96
2023/08/09 17:40:04;;;;;;;0.65;0.57;;;;;;;17.60;100.00;99990.44;4848602;29;20133;-95
2023/08/09 17:42:34;;;;;;;0.47;0.47;;;;;;;17.76;100.00;100008.00;4836373;29;20042;-96
2023/08/09 17:45:07;;;;;;;0.65;0.65;;;;;;;17.89;100.00;100028.09;4843934;29;20041;-96
2023/08/09 17:47:34;;;;;;;0.98;0.65;;;;;;;17.74;100.00;100011.31;4852232;29;20069;-92
2023/08/09 17:50:01;;;;;;;0.15;0.15;;;;;;;17.51;100.00;99993.31;4870323;29;20029;-96
2023/08/09 17:52:27;;;;;;;0.32;0.32;;;;;;;17.53;100.00;99998.44;4868337;29;20136;-95
2023/08/09 17:54:55;;;;;;;0.68;0.68;;;;;;;17.55;100.00;100007.91;4835898;29;20056;-93
2023/08/09 17:57:21;;;;;;;0.38;0.38;;;;;;;17.57;100.00;100005.44;4853662;29;20045;-95
2023/08/09 17:59:47;;;;;;;0.90;0.68;;;;;;;17.52;100.00;99994.09;4837682;29;20422;-95
2023/08/09 18:02:15;;;;;;;0.50;0.50;;;;;;;17.49;100.00;100004.25;4830937;29;20057;-96
2023/08/09 18:04:44;;;;;;;0.30;0.30;;;;;;;17.42;100.00;100007.44;4867239;29;20057;-96
2023/08/09 18:07:39;;;;;;;0.65;0.65;;;;;;;17.55;100.00;100021.94;4882948;29;20052;-96
2023/08/09 18:10:12;;;;;;;0.35;0.35;;;;;;;17.35;100.00;100004.28;4876482;29;20054;-96
2023/08/09 18:12:41;;;;;;;0.52;0.52;;;;;;;17.27;100.00;99994.72;4866308;29;20490;-96
2023/08/09 18:15:09;;;;;;;1.55;1.00;;;;;;;17.41;100.00;100011.50;4847952;29;20041;-96
2023/08/09 18:17:38;;;;;;;0.65;0.65;;;;;;;17.24;100.00;99990.81;4841311;29;20071;-96
2023/08/09 18:20:11;;;;;;;0.30;0.30;;;;;;;17.22;100.00;99994.13;4842155;29;20049;-96
2023/08/09 18:22:45;;;;;;;0.52;0.52;;;;;;;17.26;100.00;99999.53;4873442;29;20053;-96
2023/08/09 18:25:13;;;;;;;1.38;0.40;;;;;;;17.47;100.00;100043.22;4861392;29;20074;-96
2023/08/09 18:27:41;;;;;;;0.82;0.57;;;;;;;17.19;100.00;100013.91;4857163;29;20051;-96
2023/08/09 18:30:10;;;;;;;1.15;0.68;;;;;;;17.20;100.00;100018.28;4858415;29;20049;-96
2023/08/09 18:32:37;;;;;;;0.70;0.68;;;;;;;17.22;100.00;100024.97;4855797;29;20046;-96
2023/08/09 18:35:09;;;;;;;0.45;0.45;;;;;;;17.14;100.00;100023.78;4843191;29;20094;-96
2023/08/09 18:37:35;;;;;;;0.52;0.28;;;;;;;17.10;100.00;100045.63;4855295;29;20045;-96
2023/08/09 18:40:01;;;;;;;0.80;0.70;;;;;;;17.01;100.00;100070.94;4835311;29;20045;-96
2023/08/09 18:42:28;;;;;;;0.30;0.30;;;;;;;16.65;100.00;100040.41;4844107;29;20060;-96
2023/08/09 18:44:55;;;;;;;1.60;1.00;;;;;;;16.74;100.00;100071.16;4858902;29;20050;-95
2023/08/09 18:47:21;;;;;;;0.20;0.20;;;;;;;16.52;100.00;100043.44;4850280;29;20043;-96
2023/08/09 18:49:53;;;;;;;0.22;0.17;;;;;;;16.51;100.00;100043.91;4857244;29;20494;-96
2023/08/09 18:52:24;;;;;;;0.38;0.38;;;;;;;16.59;100.00;100037.50;4853664;29;20046;-96
2023/08/09 18:54:52;;;;;;;1.33;1.17;;;;;;;16.63;100.00;100049.28;4856897;29;20049;-96
2023/08/09 18:57:18;;;;;;;1.45;0.60;;;;;;;16.76;100.00;100063.81;4859238;29;20106;-96
2023/08/09 18:59:45;;;;;;;0.10;0.10;;;;;;;16.88;100.00;100086.44;4837130;29;20049;-96
2023/08/09 19:02:15;;;;;;;0.85;0.85;;;;;;;16.83;100.00;100073.09;4851506;29;20045;-96
2023/08/09 19:05:06;;;;;;;0.10;0.10;;;;;;;16.61;100.00;100057.41;4848040;29;20054;-96
